Historyczne dane pomiarowe

Dodano dane terminowe – wersja testowa.

Dane z okresu 1951-2019

Wersja bazy: 1.34 [2019-03-16, lista zmian], aktualizacja planowana na 2019-04-15

Dane meteo z obszaru Polski uzyskane na podstawie danych udostępnionych przez Instytut Meteorologii i Gospodarki Wodnej – Państwowy Instytut Badawczy.

 

Wybierz Datę:    

       

TemperaturaWilgotnośćWiatrCiśnienieOpadyŚniegCzas trwania zjawisk
 Stacja t tx tn tng RH VA  wxwx mslp ppp RRR   cm mm wxwxwxwxwxwxwx
2019-07-25 24.0 30.6 15.5 12.5-- 2.3 2.3---- 0.0------------
2019-07-24 21.8 25.5 18.1 17.8-- 5.3 2.0---- 0.0------------
2019-07-23 20.1 23.1 17.7 16.8-- 6.7 2.0---- 0.0------------
2019-07-22 21.6 26.8 16.4 15.4-- 3.7 4.0---- 0.0------------
2019-07-21 22.9 30.5 16.7 13.9-- 7.0 3.7---- 0.6------------
2019-07-20 23.4 29.4 17.4 17.1-- 5.0 1.7---- 0.1------------
2019-07-19 21.9 28.9 12.4 9.4-- 2.3 3.3---- 1.0------------
2019-07-18 18.6 24.8 11.7 9.6-- 2.3 2.0---- 0.0------------
2019-07-17 17.0 21.8 13.4 13.1-- 6.7 4.7---- 1.4------------
2019-07-16 16.6 22.5 13.0 10.2-- 7.0 4.3---- 4.1------------
2019-07-15 19.6 25.3 13.1 11.7-- 4.0 2.7---- 0.0------------
2019-07-14 19.1 25.0 14.0 12.0-- 3.7 3.3---- 0.0------------
2019-07-13 18.9 24.9 14.2 11.8-- 7.7 1.3---- 1.7------------
2019-07-12 19.4 26.4 11.0 8.4-- 2.7 2.0---- 0.0------------
2019-07-11 17.0 22.2 11.9 11.2-- 6.3 2.7---- 0.0------------
2019-07-10 16.2 19.9 12.8 12.7-- 7.0 3.0---- 0.0------------
2019-07-09 15.4 20.6 11.7 11.1-- 6.7 6.3---- 10.7------------
2019-07-08 15.6 19.6 12.5 12.3-- 6.7 6.7---- 0.0------------
2019-07-07 17.5 21.2 15.2 14.9-- 6.7 5.7---- 0.0------------
2019-07-06 16.8 20.6 12.1 10.7-- 6.7 3.0---- 2.6------------
2019-07-05 17.1 19.4 14.0 10.1-- 8.0 6.3---- 1.1------------
2019-07-04 17.4 22.5 11.5 8.6-- 6.0 5.3---- 0.0------------
2019-07-03 17.2 21.5 12.9 12.1-- 3.7 5.7---- 0.0------------
2019-07-02 21.4 25.7 17.7 16.0-- 2.3 5.7---- 0.0------------
2019-07-01 26.9 32.5 23.6 18.6-- 5.0 3.7---- 1.6------------
2019-06-30 27.4 35.9 17.9 14.2-- 0.0 2.7---- 0.0------------
2019-06-29 21.5 28.5 13.5 12.6-- 4.3 5.7---- 0.0------------
2019-06-28 19.9 25.9 14.6 13.9-- 3.7 4.3---- 0.0------------
2019-06-27 24.1 33.2 20.0 20.5-- 6.0 5.7---- 0.0------------
2019-06-26 29.5 36.7 21.4 19.4-- 1.7 3.3---- 0.0------------
2019-06-25 25.9 32.2 17.9 14.1-- 0.0 3.0---- 0.0------------
2019-06-24 23.3 30.4 16.2 14.7-- 0.0 2.3---- 0.0------------
2019-06-23 21.1 26.8 14.9 13.9-- 4.7 2.3---- 0.0------------
2019-06-22 21.7 26.5 17.0 16.5-- 1.7 2.7---- 0.0------------
2019-06-21 23.4 29.8 18.7 17.8-- 4.7 2.7---- 0.1------------
2019-06-20 24.7 30.6 19.1 17.9-- 6.7 2.0---- 2.7------------
2019-06-19 23.4 30.3 18.8 16.5-- 6.7 3.3---- 1.0------------
2019-06-18 22.3 28.3 16.0 14.6-- 2.3 2.0---- 0.0------------
2019-06-17 20.1 25.0 15.4 15.2-- 2.0 4.7---- 0.0------------
2019-06-16 24.1 29.5 21.6 21.8-- 6.7 4.3---- 0.0------------
2019-06-15 26.5 32.6 19.8 19.1-- 2.0 3.0---- 0.0------------
2019-06-14 23.7 29.4 17.8 17.6-- 4.0 2.3---- 0.0------------
2019-06-13 27.2 34.4 21.3 19.2-- 4.3 3.0---- 6.4------------
2019-06-12 27.6 34.4 20.7 18.9-- 1.0 4.0---- 0.0------------
2019-06-11 27.2 33.5 20.4 18.2-- 0.0 3.3---- 0.0------------
2019-06-10 23.9 31.1 16.1 12.2-- 2.7 4.0---- 0.0------------
2019-06-09 21.8 27.1 16.0 13.3-- 0.0 2.0---- 0.0------------
2019-06-08 23.5 29.2 17.8 14.8-- 5.0 3.0---- 0.0------------
2019-06-07 23.3 29.5 16.6 15.8-- 3.7 2.7---- 0.0------------
2019-06-06 23.6 29.4 18.1 16.6-- 2.7 4.0---- 0.0------------
2019-06-05 24.3 29.6 18.0 13.8-- 2.0 3.7---- 0.0------------
2019-06-04 23.7 30.5 16.3 12.1-- 0.3 3.0---- 0.0------------
2019-06-03 22.2 28.4 15.1 11.0-- 0.3 2.0---- 0.0------------
2019-06-02 21.8 28.0 14.1 11.5-- 4.0 3.0---- 4.4------------
2019-06-01 20.2 25.0 14.9 11.9-- 3.0 2.7---- 0.0------------
2019-05-31 17.9 24.2 9.0 5.6-- 2.3 2.7---- 0.0------------
2019-05-30 13.7 20.1 6.6 4.8-- 2.3 1.7---- 0.0------------
2019-05-29 13.3 16.5 10.8 10.7-- 7.3 3.3---- 0.0------------
2019-05-28 18.3 24.6 15.7 14.7-- 5.3 1.7---- 13.0------------
2019-05-27 20.3 26.8 12.9 10.0-- 5.3 3.3---- 1.7------------
1071.2 ms

 

Źródłem pochodzenia danych jest Instytut Meteorologii i Gospodarki Wodnej – Państwowy Instytut Badawczy. Dane Instytutu Meteorologii i Gospodarki Wodnej – Państwowego Instytutu Badawczego zostały przetworzone.

Dane źródłowe można odnaleźć na stronie https://dane.imgw.pl